sensor_id;sensor_type;location;lat;lon;timestamp;P1;durP1;ratioP1;P2;durP2;ratioP2
15287;SDS011;7745;48.708;9.026;2022-09-27T00:01:34;2.60;;;0.60;;
15287;SDS011;7745;48.708;9.026;2022-09-27T00:04:01;1.50;;;0.90;;
15287;SDS011;7745;48.708;9.026;2022-09-27T00:06:28;1.23;;;0.80;;
15287;SDS011;7745;48.708;9.026;2022-09-27T00:08:58;1.20;;;0.70;;
15287;SDS011;7745;48.708;9.026;2022-09-27T00:11:26;1.27;;;0.70;;
15287;SDS011;7745;48.708;9.026;2022-09-27T00:13:56;1.13;;;0.60;;
15287;SDS011;7745;48.708;9.026;2022-09-27T00:16:24;1.23;;;0.70;;
15287;SDS011;7745;48.708;9.026;2022-09-27T00:18:56;0.73;;;0.63;;
15287;SDS011;7745;48.708;9.026;2022-09-27T00:21:24;0.73;;;0.70;;
15287;SDS011;7745;48.708;9.026;2022-09-27T00:23:51;1.57;;;0.70;;
15287;SDS011;7745;48.708;9.026;2022-09-27T00:26:18;0.90;;;0.70;;
15287;SDS011;7745;48.708;9.026;2022-09-27T00:28:44;1.83;;;0.70;;
15287;SDS011;7745;48.708;9.026;2022-09-27T00:31:20;0.80;;;0.60;;
15287;SDS011;7745;48.708;9.026;2022-09-27T00:33:48;0.87;;;0.67;;
15287;SDS011;7745;48.708;9.026;2022-09-27T00:36:17;0.50;;;0.50;;
15287;SDS011;7745;48.708;9.026;2022-09-27T00:38:45;1.90;;;0.70;;
15287;SDS011;7745;48.708;9.026;2022-09-27T00:41:12;0.80;;;0.77;;
15287;SDS011;7745;48.708;9.026;2022-09-27T00:43:42;1.60;;;0.70;;
15287;SDS011;7745;48.708;9.026;2022-09-27T00:46:12;1.23;;;0.80;;
15287;SDS011;7745;48.708;9.026;2022-09-27T00:48:43;2.63;;;0.83;;
15287;SDS011;7745;48.708;9.026;2022-09-27T00:51:11;1.97;;;0.70;;
15287;SDS011;7745;48.708;9.026;2022-09-27T00:53:39;1.30;;;0.80;;
15287;SDS011;7745;48.708;9.026;2022-09-27T00:56:11;1.33;;;0.87;;
15287;SDS011;7745;48.708;9.026;2022-09-27T00:58:45;1.27;;;0.90;;
15287;SDS011;7745;48.708;9.026;2022-09-27T01:01:16;1.40;;;0.73;;
15287;SDS011;7745;48.708;9.026;2022-09-27T01:03:46;1.90;;;0.70;;
15287;SDS011;7745;48.708;9.026;2022-09-27T01:06:17;1.47;;;0.70;;
15287;SDS011;7745;48.708;9.026;2022-09-27T01:08:46;0.60;;;0.60;;
15287;SDS011;7745;48.708;9.026;2022-09-27T01:11:15;2.33;;;0.70;;
15287;SDS011;7745;48.708;9.026;2022-09-27T01:13:54;2.20;;;0.67;;
15287;SDS011;7745;48.708;9.026;2022-09-27T01:16:34;0.60;;;0.60;;
15287;SDS011;7745;48.708;9.026;2022-09-27T01:19:12;0.70;;;0.60;;
15287;SDS011;7745;48.708;9.026;2022-09-27T01:21:52;2.83;;;0.70;;
15287;SDS011;7745;48.708;9.026;2022-09-27T01:24:38;1.40;;;0.83;;
15287;SDS011;7745;48.708;9.026;2022-09-27T01:30:46;0.93;;;0.70;;
15287;SDS011;7745;48.708;9.026;2022-09-27T01:33:25;1.47;;;0.60;;
15287;SDS011;7745;48.708;9.026;2022-09-27T01:36:08;1.00;;;0.60;;
15287;SDS011;7745;48.708;9.026;2022-09-27T01:38:46;1.97;;;1.07;;
15287;SDS011;7745;48.708;9.026;2022-09-27T01:41:26;1.17;;;0.43;;
15287;SDS011;7745;48.708;9.026;2022-09-27T01:43:59;1.10;;;0.60;;
15287;SDS011;7745;48.708;9.026;2022-09-27T01:46:32;0.40;;;0.40;;
15287;SDS011;7745;48.708;9.026;2022-09-27T01:49:04;0.57;;;0.37;;
15287;SDS011;7745;48.708;9.026;2022-09-27T01:51:37;0.70;;;0.50;;
15287;SDS011;7745;48.708;9.026;2022-09-27T01:54:09;0.70;;;0.53;;
15287;SDS011;7745;48.708;9.026;2022-09-27T01:56:43;0.50;;;0.50;;
15287;SDS011;7745;48.708;9.026;2022-09-27T01:59:14;1.00;;;0.50;;
15287;SDS011;7745;48.708;9.026;2022-09-27T02:01:47;0.40;;;0.40;;
15287;SDS011;7745;48.708;9.026;2022-09-27T02:04:18;0.57;;;0.40;;
15287;SDS011;7745;48.708;9.026;2022-09-27T02:06:50;1.10;;;0.60;;
15287;SDS011;7745;48.708;9.026;2022-09-27T02:09:21;2.13;;;0.77;;
15287;SDS011;7745;48.708;9.026;2022-09-27T02:11:53;2.13;;;0.70;;
15287;SDS011;7745;48.708;9.026;2022-09-27T02:14:24;1.37;;;0.70;;
15287;SDS011;7745;48.708;9.026;2022-09-27T02:16:57;2.07;;;0.80;;
15287;SDS011;7745;48.708;9.026;2022-09-27T02:19:33;1.07;;;0.73;;
15287;SDS011;7745;48.708;9.026;2022-09-27T02:22:08;1.53;;;0.77;;
15287;SDS011;7745;48.708;9.026;2022-09-27T02:24:40;4.00;;;0.50;;
15287;SDS011;7745;48.708;9.026;2022-09-27T02:27:16;0.67;;;0.40;;
15287;SDS011;7745;48.708;9.026;2022-09-27T02:29:51;0.90;;;0.40;;
15287;SDS011;7745;48.708;9.026;2022-09-27T02:32:26;0.90;;;0.30;;
15287;SDS011;7745;48.708;9.026;2022-09-27T02:34:53;0.87;;;0.40;;
15287;SDS011;7745;48.708;9.026;2022-09-27T02:37:22;0.33;;;0.30;;
15287;SDS011;7745;48.708;9.026;2022-09-27T02:39:49;1.13;;;0.40;;
15287;SDS011;7745;48.708;9.026;2022-09-27T02:42:16;1.03;;;0.37;;
15287;SDS011;7745;48.708;9.026;2022-09-27T02:44:43;0.20;;;0.20;;
15287;SDS011;7745;48.708;9.026;2022-09-27T02:47:18;0.80;;;0.37;;
15287;SDS011;7745;48.708;9.026;2022-09-27T02:50:02;0.20;;;0.20;;
15287;SDS011;7745;48.708;9.026;2022-09-27T02:52:58;0.50;;;0.20;;
15287;SDS011;7745;48.708;9.026;2022-09-27T02:55:36;0.57;;;0.30;;
15287;SDS011;7745;48.708;9.026;2022-09-27T02:58:10;3.00;;;0.50;;
15287;SDS011;7745;48.708;9.026;2022-09-27T03:00:46;0.40;;;0.30;;
15287;SDS011;7745;48.708;9.026;2022-09-27T03:03:24;1.20;;;0.30;;
15287;SDS011;7745;48.708;9.026;2022-09-27T03:05:58;0.30;;;0.30;;
15287;SDS011;7745;48.708;9.026;2022-09-27T03:08:29;0.60;;;0.37;;
15287;SDS011;7745;48.708;9.026;2022-09-27T03:10:56;0.67;;;0.27;;
15287;SDS011;7745;48.708;9.026;2022-09-27T03:13:23;0.50;;;0.30;;
15287;SDS011;7745;48.708;9.026;2022-09-27T03:15:50;1.50;;;0.40;;
15287;SDS011;7745;48.708;9.026;2022-09-27T03:18:17;0.90;;;0.37;;
15287;SDS011;7745;48.708;9.026;2022-09-27T03:20:45;0.40;;;0.40;;
15287;SDS011;7745;48.708;9.026;2022-09-27T03:23:12;0.90;;;0.50;;
15287;SDS011;7745;48.708;9.026;2022-09-27T03:25:39;2.67;;;0.60;;
15287;SDS011;7745;48.708;9.026;2022-09-27T03:28:06;2.07;;;0.90;;
15287;SDS011;7745;48.708;9.026;2022-09-27T03:30:33;2.60;;;0.70;;
15287;SDS011;7745;48.708;9.026;2022-09-27T03:33:01;3.07;;;0.90;;
15287;SDS011;7745;48.708;9.026;2022-09-27T03:35:28;0.93;;;0.60;;
15287;SDS011;7745;48.708;9.026;2022-09-27T03:37:57;1.47;;;0.80;;
15287;SDS011;7745;48.708;9.026;2022-09-27T03:40:24;2.17;;;0.80;;
15287;SDS011;7745;48.708;9.026;2022-09-27T03:42:50;4.50;;;1.30;;
15287;SDS011;7745;48.708;9.026;2022-09-27T03:45:17;2.03;;;1.10;;
15287;SDS011;7745;48.708;9.026;2022-09-27T03:47:44;2.57;;;1.33;;
15287;SDS011;7745;48.708;9.026;2022-09-27T03:50:12;3.73;;;1.30;;
15287;SDS011;7745;48.708;9.026;2022-09-27T03:52:39;4.73;;;1.33;;
15287;SDS011;7745;48.708;9.026;2022-09-27T03:55:09;3.57;;;1.20;;
15287;SDS011;7745;48.708;9.026;2022-09-27T03:57:37;2.93;;;1.50;;
15287;SDS011;7745;48.708;9.026;2022-09-27T04:00:05;6.40;;;2.07;;
15287;SDS011;7745;48.708;9.026;2022-09-27T04:02:32;5.20;;;1.77;;
15287;SDS011;7745;48.708;9.026;2022-09-27T04:04:59;3.80;;;1.60;;
15287;SDS011;7745;48.708;9.026;2022-09-27T04:07:26;6.77;;;2.00;;
15287;SDS011;7745;48.708;9.026;2022-09-27T04:09:54;6.33;;;1.87;;
15287;SDS011;7745;48.708;9.026;2022-09-27T04:12:22;7.20;;;2.03;;
15287;SDS011;7745;48.708;9.026;2022-09-27T04:14:49;3.83;;;1.93;;
15287;SDS011;7745;48.708;9.026;2022-09-27T04:17:15;4.17;;;1.90;;
15287;SDS011;7745;48.708;9.026;2022-09-27T04:19:42;7.20;;;1.90;;
15287;SDS011;7745;48.708;9.026;2022-09-27T04:22:09;5.93;;;2.17;;
15287;SDS011;7745;48.708;9.026;2022-09-27T04:24:37;4.43;;;1.57;;
15287;SDS011;7745;48.708;9.026;2022-09-27T04:27:04;3.03;;;1.60;;
15287;SDS011;7745;48.708;9.026;2022-09-27T04:29:33;4.17;;;1.60;;
15287;SDS011;7745;48.708;9.026;2022-09-27T04:32:00;7.20;;;1.83;;
15287;SDS011;7745;48.708;9.026;2022-09-27T04:34:27;4.83;;;1.70;;
15287;SDS011;7745;48.708;9.026;2022-09-27T04:37:07;3.57;;;1.63;;
15287;SDS011;7745;48.708;9.026;2022-09-27T04:39:35;4.87;;;1.80;;
15287;SDS011;7745;48.708;9.026;2022-09-27T04:42:03;6.60;;;1.93;;
15287;SDS011;7745;48.708;9.026;2022-09-27T04:44:32;3.60;;;1.90;;
15287;SDS011;7745;48.708;9.026;2022-09-27T04:46:59;5.67;;;2.70;;
15287;SDS011;7745;48.708;9.026;2022-09-27T04:49:26;3.77;;;2.07;;
15287;SDS011;7745;48.708;9.026;2022-09-27T04:51:53;4.60;;;2.17;;
15287;SDS011;7745;48.708;9.026;2022-09-27T04:54:20;6.20;;;2.03;;
15287;SDS011;7745;48.708;9.026;2022-09-27T04:56:47;5.47;;;1.33;;
15287;SDS011;7745;48.708;9.026;2022-09-27T04:59:14;2.47;;;1.20;;
15287;SDS011;7745;48.708;9.026;2022-09-27T05:01:42;4.83;;;1.47;;
15287;SDS011;7745;48.708;9.026;2022-09-27T05:04:09;5.80;;;1.30;;
15287;SDS011;7745;48.708;9.026;2022-09-27T05:06:36;5.33;;;1.30;;
15287;SDS011;7745;48.708;9.026;2022-09-27T05:09:03;2.23;;;1.37;;
15287;SDS011;7745;48.708;9.026;2022-09-27T05:11:30;3.37;;;1.40;;
15287;SDS011;7745;48.708;9.026;2022-09-27T05:13:57;3.93;;;1.80;;
15287;SDS011;7745;48.708;9.026;2022-09-27T05:16:23;4.03;;;1.70;;
15287;SDS011;7745;48.708;9.026;2022-09-27T05:18:52;3.23;;;1.60;;
15287;SDS011;7745;48.708;9.026;2022-09-27T05:21:19;1.77;;;1.53;;
15287;SDS011;7745;48.708;9.026;2022-09-27T05:23:45;3.67;;;1.60;;
15287;SDS011;7745;48.708;9.026;2022-09-27T05:26:12;4.70;;;1.80;;
15287;SDS011;7745;48.708;9.026;2022-09-27T05:28:39;4.60;;;1.40;;
15287;SDS011;7745;48.708;9.026;2022-09-27T05:31:07;3.73;;;1.07;;
15287;SDS011;7745;48.708;9.026;2022-09-27T05:33:35;1.23;;;0.90;;
15287;SDS011;7745;48.708;9.026;2022-09-27T05:36:04;1.63;;;1.07;;
15287;SDS011;7745;48.708;9.026;2022-09-27T05:38:31;2.57;;;0.93;;
15287;SDS011;7745;48.708;9.026;2022-09-27T05:40:59;2.93;;;1.00;;
15287;SDS011;7745;48.708;9.026;2022-09-27T05:43:26;4.77;;;1.40;;
15287;SDS011;7745;48.708;9.026;2022-09-27T05:45:53;2.77;;;1.20;;
15287;SDS011;7745;48.708;9.026;2022-09-27T05:48:20;3.37;;;1.03;;
15287;SDS011;7745;48.708;9.026;2022-09-27T05:50:47;3.03;;;1.20;;
15287;SDS011;7745;48.708;9.026;2022-09-27T05:53:15;3.40;;;1.17;;
15287;SDS011;7745;48.708;9.026;2022-09-27T05:55:42;1.63;;;1.10;;
15287;SDS011;7745;48.708;9.026;2022-09-27T05:58:09;2.73;;;1.17;;
15287;SDS011;7745;48.708;9.026;2022-09-27T06:00:37;6.13;;;3.77;;
15287;SDS011;7745;48.708;9.026;2022-09-27T06:03:04;3.30;;;1.70;;
15287;SDS011;7745;48.708;9.026;2022-09-27T06:05:33;1.67;;;1.00;;
15287;SDS011;7745;48.708;9.026;2022-09-27T06:08:02;2.73;;;1.10;;
15287;SDS011;7745;48.708;9.026;2022-09-27T06:10:32;2.13;;;1.10;;
15287;SDS011;7745;48.708;9.026;2022-09-27T06:12:59;1.30;;;1.00;;
15287;SDS011;7745;48.708;9.026;2022-09-27T06:15:26;1.87;;;0.93;;
15287;SDS011;7745;48.708;9.026;2022-09-27T06:17:54;2.90;;;0.90;;
15287;SDS011;7745;48.708;9.026;2022-09-27T06:20:21;2.07;;;0.80;;
15287;SDS011;7745;48.708;9.026;2022-09-27T06:22:47;2.00;;;0.70;;
15287;SDS011;7745;48.708;9.026;2022-09-27T06:25:16;1.17;;;0.70;;
15287;SDS011;7745;48.708;9.026;2022-09-27T06:27:45;3.60;;;1.47;;
15287;SDS011;7745;48.708;9.026;2022-09-27T06:30:12;1.83;;;0.90;;
15287;SDS011;7745;48.708;9.026;2022-09-27T06:32:39;1.57;;;1.33;;
15287;SDS011;7745;48.708;9.026;2022-09-27T06:35:07;2.50;;;1.63;;
15287;SDS011;7745;48.708;9.026;2022-09-27T06:37:34;1.57;;;1.47;;
15287;SDS011;7745;48.708;9.026;2022-09-27T06:40:01;2.40;;;1.40;;
15287;SDS011;7745;48.708;9.026;2022-09-27T06:42:28;2.67;;;1.23;;
15287;SDS011;7745;48.708;9.026;2022-09-27T06:44:56;0.80;;;0.70;;
15287;SDS011;7745;48.708;9.026;2022-09-27T06:47:23;3.00;;;0.90;;
15287;SDS011;7745;48.708;9.026;2022-09-27T06:49:51;1.30;;;0.67;;
15287;SDS011;7745;48.708;9.026;2022-09-27T06:52:18;0.83;;;0.53;;
15287;SDS011;7745;48.708;9.026;2022-09-27T06:54:44;2.07;;;0.70;;
15287;SDS011;7745;48.708;9.026;2022-09-27T06:57:11;1.03;;;0.60;;
15287;SDS011;7745;48.708;9.026;2022-09-27T07:00:00;1.27;;;0.53;;
15287;SDS011;7745;48.708;9.026;2022-09-27T07:02:44;1.63;;;0.40;;
15287;SDS011;7745;48.708;9.026;2022-09-27T07:05:11;0.57;;;0.30;;
15287;SDS011;7745;48.708;9.026;2022-09-27T07:07:38;0.80;;;0.40;;
15287;SDS011;7745;48.708;9.026;2022-09-27T07:10:06;1.47;;;0.60;;
15287;SDS011;7745;48.708;9.026;2022-09-27T07:12:34;3.30;;;0.57;;
15287;SDS011;7745;48.708;9.026;2022-09-27T07:15:03;0.67;;;0.40;;
15287;SDS011;7745;48.708;9.026;2022-09-27T07:17:31;1.83;;;0.50;;
15287;SDS011;7745;48.708;9.026;2022-09-27T07:20:00;0.80;;;0.40;;
15287;SDS011;7745;48.708;9.026;2022-09-27T07:22:27;0.57;;;0.40;;
15287;SDS011;7745;48.708;9.026;2022-09-27T07:24:55;0.60;;;0.30;;
15287;SDS011;7745;48.708;9.026;2022-09-27T07:27:22;5.47;;;0.63;;
15287;SDS011;7745;48.708;9.026;2022-09-27T07:29:50;0.57;;;0.40;;
15287;SDS011;7745;48.708;9.026;2022-09-27T07:32:19;0.50;;;0.50;;
15287;SDS011;7745;48.708;9.026;2022-09-27T07:34:47;0.53;;;0.40;;
15287;SDS011;7745;48.708;9.026;2022-09-27T07:37:13;1.33;;;0.50;;
15287;SDS011;7745;48.708;9.026;2022-09-27T07:39:41;1.10;;;0.70;;
15287;SDS011;7745;48.708;9.026;2022-09-27T07:42:08;0.53;;;0.40;;
15287;SDS011;7745;48.708;9.026;2022-09-27T07:44:35;1.17;;;0.30;;
15287;SDS011;7745;48.708;9.026;2022-09-27T07:47:05;2.27;;;0.50;;
15287;SDS011;7745;48.708;9.026;2022-09-27T07:49:33;1.17;;;0.40;;
15287;SDS011;7745;48.708;9.026;2022-09-27T07:52:00;2.47;;;0.30;;
15287;SDS011;7745;48.708;9.026;2022-09-27T07:54:27;0.90;;;0.40;;
15287;SDS011;7745;48.708;9.026;2022-09-27T07:56:54;1.20;;;0.60;;
15287;SDS011;7745;48.708;9.026;2022-09-27T07:59:21;1.23;;;0.50;;
15287;SDS011;7745;48.708;9.026;2022-09-27T08:01:48;2.10;;;0.60;;
15287;SDS011;7745;48.708;9.026;2022-09-27T08:04:15;0.40;;;0.40;;
15287;SDS011;7745;48.708;9.026;2022-09-27T08:06:43;1.13;;;0.50;;
15287;SDS011;7745;48.708;9.026;2022-09-27T08:09:10;0.97;;;0.50;;
15287;SDS011;7745;48.708;9.026;2022-09-27T08:11:37;1.10;;;0.40;;
15287;SDS011;7745;48.708;9.026;2022-09-27T08:14:04;0.27;;;0.20;;
15287;SDS011;7745;48.708;9.026;2022-09-27T08:16:31;0.90;;;0.40;;
15287;SDS011;7745;48.708;9.026;2022-09-27T08:18:58;1.50;;;0.60;;
15287;SDS011;7745;48.708;9.026;2022-09-27T08:21:25;2.10;;;0.50;;
15287;SDS011;7745;48.708;9.026;2022-09-27T08:23:56;0.40;;;0.40;;
15287;SDS011;7745;48.708;9.026;2022-09-27T08:26:23;1.50;;;0.40;;
15287;SDS011;7745;48.708;9.026;2022-09-27T08:28:52;2.20;;;0.30;;
15287;SDS011;7745;48.708;9.026;2022-09-27T08:31:19;2.33;;;0.50;;
15287;SDS011;7745;48.708;9.026;2022-09-27T08:33:48;1.20;;;0.40;;
15287;SDS011;7745;48.708;9.026;2022-09-27T08:36:15;1.17;;;0.77;;
15287;SDS011;7745;48.708;9.026;2022-09-27T08:38:42;1.23;;;0.50;;
15287;SDS011;7745;48.708;9.026;2022-09-27T08:41:12;5.30;;;1.00;;
15287;SDS011;7745;48.708;9.026;2022-09-27T08:43:50;1.20;;;0.50;;
15287;SDS011;7745;48.708;9.026;2022-09-27T08:46:33;0.70;;;0.40;;
15287;SDS011;7745;48.708;9.026;2022-09-27T08:49:08;2.07;;;0.90;;
15287;SDS011;7745;48.708;9.026;2022-09-27T08:51:39;0.50;;;0.37;;
15287;SDS011;7745;48.708;9.026;2022-09-27T08:54:10;1.67;;;0.50;;
15287;SDS011;7745;48.708;9.026;2022-09-27T08:56:44;0.40;;;0.40;;
15287;SDS011;7745;48.708;9.026;2022-09-27T08:59:14;0.43;;;0.40;;
15287;SDS011;7745;48.708;9.026;2022-09-27T09:01:45;1.50;;;0.50;;
15287;SDS011;7745;48.708;9.026;2022-09-27T09:04:13;1.00;;;0.50;;
15287;SDS011;7745;48.708;9.026;2022-09-27T09:06:47;2.43;;;0.60;;
15287;SDS011;7745;48.708;9.026;2022-09-27T09:09:20;1.33;;;0.40;;
15287;SDS011;7745;48.708;9.026;2022-09-27T09:11:58;1.80;;;0.50;;
15287;SDS011;7745;48.708;9.026;2022-09-27T09:14:56;2.30;;;0.43;;
15287;SDS011;7745;48.708;9.026;2022-09-27T09:17:38;1.27;;;0.50;;
15287;SDS011;7745;48.708;9.026;2022-09-27T09:20:21;0.87;;;0.40;;
15287;SDS011;7745;48.708;9.026;2022-09-27T09:23:02;0.80;;;0.50;;
15287;SDS011;7745;48.708;9.026;2022-09-27T09:25:44;1.03;;;0.50;;
15287;SDS011;7745;48.708;9.026;2022-09-27T09:28:26;1.43;;;0.80;;
15287;SDS011;7745;48.708;9.026;2022-09-27T09:31:05;2.07;;;0.70;;
15287;SDS011;7745;48.708;9.026;2022-09-27T09:33:38;1.33;;;0.70;;
15287;SDS011;7745;48.708;9.026;2022-09-27T09:36:10;1.03;;;0.93;;
15287;SDS011;7745;48.708;9.026;2022-09-27T09:38:46;2.53;;;0.80;;
15287;SDS011;7745;48.708;9.026;2022-09-27T09:41:19;1.90;;;0.83;;
15287;SDS011;7745;48.708;9.026;2022-09-27T09:43:53;1.27;;;0.77;;
15287;SDS011;7745;48.708;9.026;2022-09-27T09:46:24;1.70;;;0.77;;
15287;SDS011;7745;48.708;9.026;2022-09-27T09:48:57;1.73;;;0.83;;
15287;SDS011;7745;48.708;9.026;2022-09-27T09:51:32;1.00;;;0.90;;
15287;SDS011;7745;48.708;9.026;2022-09-27T09:54:04;1.17;;;0.93;;
15287;SDS011;7745;48.708;9.026;2022-09-27T09:56:39;1.87;;;1.10;;
15287;SDS011;7745;48.708;9.026;2022-09-27T09:59:14;1.37;;;0.87;;
15287;SDS011;7745;48.708;9.026;2022-09-27T10:01:44;2.90;;;1.00;;
15287;SDS011;7745;48.708;9.026;2022-09-27T10:04:14;0.97;;;0.70;;
15287;SDS011;7745;48.708;9.026;2022-09-27T10:06:45;2.97;;;1.00;;
15287;SDS011;7745;48.708;9.026;2022-09-27T10:09:12;0.80;;;0.60;;
15287;SDS011;7745;48.708;9.026;2022-09-27T10:11:41;1.17;;;0.80;;
15287;SDS011;7745;48.708;9.026;2022-09-27T10:14:10;3.00;;;1.10;;
15287;SDS011;7745;48.708;9.026;2022-09-27T10:16:40;3.03;;;0.80;;
15287;SDS011;7745;48.708;9.026;2022-09-27T10:19:12;3.17;;;0.97;;
15287;SDS011;7745;48.708;9.026;2022-09-27T10:21:42;3.30;;;0.80;;
15287;SDS011;7745;48.708;9.026;2022-09-27T10:24:14;0.97;;;0.67;;
15287;SDS011;7745;48.708;9.026;2022-09-27T10:26:44;2.30;;;0.97;;
15287;SDS011;7745;48.708;9.026;2022-09-27T10:29:22;3.10;;;1.40;;
15287;SDS011;7745;48.708;9.026;2022-09-27T10:31:52;2.03;;;1.33;;
15287;SDS011;7745;48.708;9.026;2022-09-27T10:34:23;2.90;;;1.30;;
15287;SDS011;7745;48.708;9.026;2022-09-27T10:37:12;2.50;;;1.23;;
15287;SDS011;7745;48.708;9.026;2022-09-27T10:39:44;4.57;;;1.27;;
15287;SDS011;7745;48.708;9.026;2022-09-27T10:42:19;2.57;;;1.73;;
15287;SDS011;7745;48.708;9.026;2022-09-27T10:44:48;8.80;;;1.30;;
15287;SDS011;7745;48.708;9.026;2022-09-27T10:47:16;2.30;;;1.03;;
15287;SDS011;7745;48.708;9.026;2022-09-27T10:49:47;6.23;;;1.30;;
15287;SDS011;7745;48.708;9.026;2022-09-27T10:52:17;4.33;;;1.13;;
15287;SDS011;7745;48.708;9.026;2022-09-27T10:54:51;2.03;;;1.07;;
15287;SDS011;7745;48.708;9.026;2022-09-27T10:57:20;3.13;;;1.00;;
15287;SDS011;7745;48.708;9.026;2022-09-27T10:59:51;2.43;;;0.97;;
15287;SDS011;7745;48.708;9.026;2022-09-27T11:02:20;1.90;;;1.07;;
15287;SDS011;7745;48.708;9.026;2022-09-27T11:05:08;2.97;;;1.00;;
15287;SDS011;7745;48.708;9.026;2022-09-27T11:07:45;2.27;;;1.20;;
15287;SDS011;7745;48.708;9.026;2022-09-27T11:10:19;1.53;;;0.60;;
15287;SDS011;7745;48.708;9.026;2022-09-27T11:15:39;1.13;;;0.60;;
15287;SDS011;7745;48.708;9.026;2022-09-27T11:18:16;2.57;;;0.80;;
15287;SDS011;7745;48.708;9.026;2022-09-27T11:20:52;3.50;;;0.80;;
15287;SDS011;7745;48.708;9.026;2022-09-27T11:23:32;1.87;;;0.63;;
15287;SDS011;7745;48.708;9.026;2022-09-27T11:26:16;1.37;;;0.60;;
15287;SDS011;7745;48.708;9.026;2022-09-27T11:28:57;2.37;;;0.90;;
15287;SDS011;7745;48.708;9.026;2022-09-27T11:31:39;1.50;;;0.60;;
15287;SDS011;7745;48.708;9.026;2022-09-27T11:34:13;4.30;;;0.80;;
15287;SDS011;7745;48.708;9.026;2022-09-27T11:37:02;1.33;;;0.67;;
15287;SDS011;7745;48.708;9.026;2022-09-27T11:39:43;4.40;;;0.70;;
15287;SDS011;7745;48.708;9.026;2022-09-27T11:42:29;2.63;;;0.57;;
15287;SDS011;7745;48.708;9.026;2022-09-27T11:45:27;3.00;;;0.80;;
15287;SDS011;7745;48.708;9.026;2022-09-27T11:48:07;1.33;;;0.50;;
15287;SDS011;7745;48.708;9.026;2022-09-27T11:50:58;1.83;;;0.63;;
15287;SDS011;7745;48.708;9.026;2022-09-27T11:53:35;5.07;;;0.67;;
15287;SDS011;7745;48.708;9.026;2022-09-27T11:56:28;1.23;;;0.90;;
15287;SDS011;7745;48.708;9.026;2022-09-27T11:59:06;1.63;;;0.80;;
15287;SDS011;7745;48.708;9.026;2022-09-27T12:01:48;1.60;;;0.80;;
15287;SDS011;7745;48.708;9.026;2022-09-27T12:04:27;4.50;;;1.00;;
15287;SDS011;7745;48.708;9.026;2022-09-27T12:07:13;1.37;;;1.00;;
15287;SDS011;7745;48.708;9.026;2022-09-27T12:09:47;1.67;;;0.80;;
15287;SDS011;7745;48.708;9.026;2022-09-27T12:12:19;2.57;;;0.83;;
15287;SDS011;7745;48.708;9.026;2022-09-27T12:14:49;1.07;;;0.60;;
15287;SDS011;7745;48.708;9.026;2022-09-27T12:17:21;3.67;;;0.70;;
15287;SDS011;7745;48.708;9.026;2022-09-27T12:19:53;1.27;;;0.50;;
15287;SDS011;7745;48.708;9.026;2022-09-27T12:22:23;0.90;;;0.60;;
15287;SDS011;7745;48.708;9.026;2022-09-27T12:24:54;1.10;;;0.70;;
15287;SDS011;7745;48.708;9.026;2022-09-27T12:27:23;2.33;;;0.77;;
15287;SDS011;7745;48.708;9.026;2022-09-27T12:29:56;0.97;;;0.73;;
15287;SDS011;7745;48.708;9.026;2022-09-27T12:32:25;1.43;;;0.60;;
15287;SDS011;7745;48.708;9.026;2022-09-27T12:35:00;1.60;;;0.63;;
15287;SDS011;7745;48.708;9.026;2022-09-27T12:37:30;1.43;;;0.77;;
15287;SDS011;7745;48.708;9.026;2022-09-27T12:40:01;2.00;;;0.60;;
15287;SDS011;7745;48.708;9.026;2022-09-27T12:42:33;1.57;;;0.60;;
15287;SDS011;7745;48.708;9.026;2022-09-27T12:45:05;2.90;;;0.60;;
15287;SDS011;7745;48.708;9.026;2022-09-27T12:47:46;4.00;;;0.90;;
15287;SDS011;7745;48.708;9.026;2022-09-27T12:50:27;1.50;;;0.57;;
15287;SDS011;7745;48.708;9.026;2022-09-27T12:53:02;1.07;;;0.40;;
15287;SDS011;7745;48.708;9.026;2022-09-27T12:55:34;2.77;;;0.80;;
15287;SDS011;7745;48.708;9.026;2022-09-27T13:01:24;0.60;;;0.50;;
15287;SDS011;7745;48.708;9.026;2022-09-27T13:04:11;1.27;;;0.70;;
15287;SDS011;7745;48.708;9.026;2022-09-27T13:06:52;1.50;;;0.53;;
15287;SDS011;7745;48.708;9.026;2022-09-27T13:09:36;1.43;;;0.80;;
15287;SDS011;7745;48.708;9.026;2022-09-27T13:12:23;1.63;;;0.67;;
15287;SDS011;7745;48.708;9.026;2022-09-27T13:14:56;1.33;;;0.73;;
15287;SDS011;7745;48.708;9.026;2022-09-27T13:26:41;0.93;;;0.50;;
15287;SDS011;7745;48.708;9.026;2022-09-27T13:29:23;0.97;;;0.70;;
15287;SDS011;7745;48.708;9.026;2022-09-27T13:32:14;1.50;;;0.60;;
15287;SDS011;7745;48.708;9.026;2022-09-27T13:34:44;1.07;;;0.90;;
15287;SDS011;7745;48.708;9.026;2022-09-27T13:43:04;2.67;;;0.67;;
15287;SDS011;7745;48.708;9.026;2022-09-27T13:45:59;0.60;;;0.40;;
15287;SDS011;7745;48.708;9.026;2022-09-27T13:48:36;3.13;;;0.67;;
15287;SDS011;7745;48.708;9.026;2022-09-27T13:51:15;1.43;;;0.60;;
15287;SDS011;7745;48.708;9.026;2022-09-27T13:53:54;1.10;;;0.60;;
15287;SDS011;7745;48.708;9.026;2022-09-27T13:59:23;2.83;;;0.60;;
15287;SDS011;7745;48.708;9.026;2022-09-27T14:01:58;0.80;;;0.50;;
15287;SDS011;7745;48.708;9.026;2022-09-27T14:04:39;1.50;;;0.70;;
15287;SDS011;7745;48.708;9.026;2022-09-27T14:07:09;1.00;;;0.47;;
15287;SDS011;7745;48.708;9.026;2022-09-27T14:09:42;2.33;;;0.70;;
15287;SDS011;7745;48.708;9.026;2022-09-27T14:12:15;1.47;;;0.60;;
15287;SDS011;7745;48.708;9.026;2022-09-27T14:14:45;5.17;;;1.00;;
15287;SDS011;7745;48.708;9.026;2022-09-27T14:17:14;0.60;;;0.43;;
15287;SDS011;7745;48.708;9.026;2022-09-27T14:19:42;1.13;;;0.50;;
15287;SDS011;7745;48.708;9.026;2022-09-27T14:22:12;2.50;;;0.77;;
15287;SDS011;7745;48.708;9.026;2022-09-27T14:24:43;1.03;;;0.70;;
15287;SDS011;7745;48.708;9.026;2022-09-27T14:27:13;1.00;;;0.70;;
15287;SDS011;7745;48.708;9.026;2022-09-27T14:29:43;1.67;;;0.70;;
15287;SDS011;7745;48.708;9.026;2022-09-27T14:32:13;2.83;;;0.50;;
15287;SDS011;7745;48.708;9.026;2022-09-27T14:34:41;1.00;;;0.50;;
15287;SDS011;7745;48.708;9.026;2022-09-27T14:37:14;0.50;;;0.47;;
15287;SDS011;7745;48.708;9.026;2022-09-27T14:39:57;4.27;;;0.90;;
15287;SDS011;7745;48.708;9.026;2022-09-27T14:42:28;1.57;;;0.70;;
15287;SDS011;7745;48.708;9.026;2022-09-27T14:45:02;1.50;;;0.50;;
15287;SDS011;7745;48.708;9.026;2022-09-27T14:47:32;0.73;;;0.40;;
15287;SDS011;7745;48.708;9.026;2022-09-27T14:49:59;1.20;;;0.40;;
15287;SDS011;7745;48.708;9.026;2022-09-27T14:52:28;4.40;;;0.40;;
15287;SDS011;7745;48.708;9.026;2022-09-27T14:54:59;1.27;;;0.40;;
15287;SDS011;7745;48.708;9.026;2022-09-27T14:57:29;1.73;;;0.50;;
15287;SDS011;7745;48.708;9.026;2022-09-27T14:59:58;1.37;;;0.47;;
15287;SDS011;7745;48.708;9.026;2022-09-27T15:02:39;1.80;;;0.30;;
15287;SDS011;7745;48.708;9.026;2022-09-27T15:05:11;1.00;;;0.40;;
15287;SDS011;7745;48.708;9.026;2022-09-27T15:07:40;0.63;;;0.37;;
15287;SDS011;7745;48.708;9.026;2022-09-27T15:10:10;1.93;;;0.50;;
15287;SDS011;7745;48.708;9.026;2022-09-27T15:12:41;1.47;;;0.30;;
15287;SDS011;7745;48.708;9.026;2022-09-27T15:15:13;1.10;;;0.27;;
15287;SDS011;7745;48.708;9.026;2022-09-27T15:17:43;2.50;;;0.37;;
15287;SDS011;7745;48.708;9.026;2022-09-27T15:20:18;2.40;;;0.90;;
15287;SDS011;7745;48.708;9.026;2022-09-27T15:22:48;1.20;;;0.37;;
15287;SDS011;7745;48.708;9.026;2022-09-27T15:25:17;0.93;;;0.50;;
15287;SDS011;7745;48.708;9.026;2022-09-27T15:27:48;1.73;;;0.70;;
15287;SDS011;7745;48.708;9.026;2022-09-27T15:30:19;3.17;;;0.67;;
15287;SDS011;7745;48.708;9.026;2022-09-27T15:32:50;1.57;;;0.60;;
15287;SDS011;7745;48.708;9.026;2022-09-27T15:35:21;2.70;;;1.00;;
15287;SDS011;7745;48.708;9.026;2022-09-27T15:37:50;0.83;;;0.50;;
15287;SDS011;7745;48.708;9.026;2022-09-27T15:43:38;3.23;;;1.27;;
15287;SDS011;7745;48.708;9.026;2022-09-27T15:46:32;1.37;;;0.70;;
15287;SDS011;7745;48.708;9.026;2022-09-27T15:49:18;1.00;;;0.57;;
15287;SDS011;7745;48.708;9.026;2022-09-27T15:51:56;2.80;;;0.80;;
15287;SDS011;7745;48.708;9.026;2022-09-27T15:54:24;4.10;;;0.50;;
15287;SDS011;7745;48.708;9.026;2022-09-27T15:56:54;1.80;;;0.90;;
15287;SDS011;7745;48.708;9.026;2022-09-27T15:59:25;2.30;;;0.60;;